sensor_id;sensor_type;location;lat;lon;timestamp;temperature;humidity
19755;DHT22;10036;47.812;9.274;2023-03-23T00:00:55;9.40;99.90
19755;DHT22;10036;47.812;9.274;2023-03-23T00:03:22;9.30;99.90
19755;DHT22;10036;47.812;9.274;2023-03-23T00:05:55;9.30;99.90
19755;DHT22;10036;47.812;9.274;2023-03-23T00:08:28;9.20;99.90
19755;DHT22;10036;47.812;9.274;2023-03-23T00:10:55;9.20;99.90
19755;DHT22;10036;47.812;9.274;2023-03-23T00:13:23;9.30;99.90
19755;DHT22;10036;47.812;9.274;2023-03-23T00:15:50;9.30;99.90
19755;DHT22;10036;47.812;9.274;2023-03-23T00:18:18;9.40;99.90
19755;DHT22;10036;47.812;9.274;2023-03-23T00:20:48;9.30;99.90
19755;DHT22;10036;47.812;9.274;2023-03-23T00:23:17;9.30;99.90
19755;DHT22;10036;47.812;9.274;2023-03-23T00:25:49;9.20;99.90
19755;DHT22;10036;47.812;9.274;2023-03-23T00:28:18;9.30;99.90
19755;DHT22;10036;47.812;9.274;2023-03-23T00:30:54;9.40;99.90
19755;DHT22;10036;47.812;9.274;2023-03-23T00:33:22;9.40;99.90
19755;DHT22;10036;47.812;9.274;2023-03-23T00:35:49;9.30;99.90
19755;DHT22;10036;47.812;9.274;2023-03-23T00:38:19;9.40;99.90
19755;DHT22;10036;47.812;9.274;2023-03-23T00:40:46;9.50;99.90
19755;DHT22;10036;47.812;9.274;2023-03-23T00:43:14;9.40;99.90
19755;DHT22;10036;47.812;9.274;2023-03-23T00:45:42;9.40;99.90
19755;DHT22;10036;47.812;9.274;2023-03-23T00:48:10;9.30;99.90
19755;DHT22;10036;47.812;9.274;2023-03-23T00:50:37;9.30;99.90
19755;DHT22;10036;47.812;9.274;2023-03-23T00:53:04;9.30;99.90
19755;DHT22;10036;47.812;9.274;2023-03-23T00:55:33;9.20;99.90
19755;DHT22;10036;47.812;9.274;2023-03-23T00:58:00;9.20;99.90
19755;DHT22;10036;47.812;9.274;2023-03-23T01:00:27;9.20;99.90
19755;DHT22;10036;47.812;9.274;2023-03-23T01:02:54;9.10;99.90
19755;DHT22;10036;47.812;9.274;2023-03-23T01:05:21;9.20;99.90
19755;DHT22;10036;47.812;9.274;2023-03-23T01:07:48;9.10;99.90
19755;DHT22;10036;47.812;9.274;2023-03-23T01:10:15;9.20;99.90
19755;DHT22;10036;47.812;9.274;2023-03-23T01:12:45;9.30;99.90
19755;DHT22;10036;47.812;9.274;2023-03-23T01:15:16;9.20;99.90
19755;DHT22;10036;47.812;9.274;2023-03-23T01:17:43;9.20;99.90
19755;DHT22;10036;47.812;9.274;2023-03-23T01:20:12;9.20;99.90
19755;DHT22;10036;47.812;9.274;2023-03-23T01:22:40;9.20;99.90
19755;DHT22;10036;47.812;9.274;2023-03-23T01:25:09;9.30;99.90
19755;DHT22;10036;47.812;9.274;2023-03-23T01:27:36;9.20;99.90
19755;DHT22;10036;47.812;9.274;2023-03-23T01:30:08;9.20;99.90
19755;DHT22;10036;47.812;9.274;2023-03-23T01:32:35;9.10;99.90
19755;DHT22;10036;47.812;9.274;2023-03-23T01:35:03;9.10;99.90
19755;DHT22;10036;47.812;9.274;2023-03-23T01:37:30;9.10;99.90
19755;DHT22;10036;47.812;9.274;2023-03-23T01:39:57;9.10;99.90
19755;DHT22;10036;47.812;9.274;2023-03-23T01:42:29;9.00;99.90
19755;DHT22;10036;47.812;9.274;2023-03-23T01:45:31;8.90;99.90
19755;DHT22;10036;47.812;9.274;2023-03-23T01:48:11;8.90;99.90
19755;DHT22;10036;47.812;9.274;2023-03-23T01:50:45;9.00;99.90
19755;DHT22;10036;47.812;9.274;2023-03-23T01:53:13;9.00;99.90
19755;DHT22;10036;47.812;9.274;2023-03-23T01:55:43;9.00;99.90
19755;DHT22;10036;47.812;9.274;2023-03-23T01:58:14;9.00;99.90
19755;DHT22;10036;47.812;9.274;2023-03-23T02:00:43;9.00;99.90
19755;DHT22;10036;47.812;9.274;2023-03-23T02:03:10;9.00;99.90
19755;DHT22;10036;47.812;9.274;2023-03-23T02:05:42;9.10;99.90
19755;DHT22;10036;47.812;9.274;2023-03-23T02:08:10;9.20;99.90
19755;DHT22;10036;47.812;9.274;2023-03-23T02:10:39;9.20;99.90
19755;DHT22;10036;47.812;9.274;2023-03-23T02:13:08;9.20;99.90
19755;DHT22;10036;47.812;9.274;2023-03-23T02:15:47;9.20;99.90
19755;DHT22;10036;47.812;9.274;2023-03-23T02:28:00;9.20;99.90
19755;DHT22;10036;47.812;9.274;2023-03-23T02:30:43;9.10;99.90
19755;DHT22;10036;47.812;9.274;2023-03-23T02:33:41;9.10;99.90
19755;DHT22;10036;47.812;9.274;2023-03-23T02:36:15;9.10;99.90
19755;DHT22;10036;47.812;9.274;2023-03-23T02:38:48;9.20;99.90
19755;DHT22;10036;47.812;9.274;2023-03-23T02:41:21;9.20;99.90
19755;DHT22;10036;47.812;9.274;2023-03-23T02:43:49;9.20;99.90
19755;DHT22;10036;47.812;9.274;2023-03-23T02:46:17;9.20;99.90
19755;DHT22;10036;47.812;9.274;2023-03-23T02:48:47;9.20;99.90
19755;DHT22;10036;47.812;9.274;2023-03-23T02:51:18;9.30;99.90
19755;DHT22;10036;47.812;9.274;2023-03-23T02:53:47;9.40;99.90
19755;DHT22;10036;47.812;9.274;2023-03-23T02:56:16;9.30;99.90
19755;DHT22;10036;47.812;9.274;2023-03-23T02:58:43;9.40;99.90
19755;DHT22;10036;47.812;9.274;2023-03-23T03:01:16;9.30;99.90
19755;DHT22;10036;47.812;9.274;2023-03-23T03:04:06;9.30;99.90
19755;DHT22;10036;47.812;9.274;2023-03-23T03:06:43;9.20;99.90
19755;DHT22;10036;47.812;9.274;2023-03-23T03:09:18;9.10;99.90
19755;DHT22;10036;47.812;9.274;2023-03-23T03:11:53;9.10;99.90
19755;DHT22;10036;47.812;9.274;2023-03-23T03:14:25;9.10;99.90
19755;DHT22;10036;47.812;9.274;2023-03-23T03:17:00;9.10;99.90
19755;DHT22;10036;47.812;9.274;2023-03-23T03:19:31;9.10;99.90
19755;DHT22;10036;47.812;9.274;2023-03-23T03:21:59;9.30;99.90
19755;DHT22;10036;47.812;9.274;2023-03-23T03:24:28;9.30;99.90
19755;DHT22;10036;47.812;9.274;2023-03-23T03:26:57;9.20;99.90
19755;DHT22;10036;47.812;9.274;2023-03-23T03:29:27;9.30;99.90
19755;DHT22;10036;47.812;9.274;2023-03-23T03:31:57;9.30;99.90
19755;DHT22;10036;47.812;9.274;2023-03-23T03:34:24;9.30;99.90
19755;DHT22;10036;47.812;9.274;2023-03-23T03:36:55;9.40;99.90
19755;DHT22;10036;47.812;9.274;2023-03-23T03:39:24;9.30;99.90
19755;DHT22;10036;47.812;9.274;2023-03-23T03:41:52;9.30;99.90
19755;DHT22;10036;47.812;9.274;2023-03-23T03:44:19;9.30;99.90
19755;DHT22;10036;47.812;9.274;2023-03-23T03:46:46;9.40;99.90
19755;DHT22;10036;47.812;9.274;2023-03-23T03:49:13;9.40;99.90
19755;DHT22;10036;47.812;9.274;2023-03-23T03:51:40;9.30;99.90
19755;DHT22;10036;47.812;9.274;2023-03-23T03:54:09;9.30;99.90
19755;DHT22;10036;47.812;9.274;2023-03-23T03:56:36;9.20;99.90
19755;DHT22;10036;47.812;9.274;2023-03-23T03:59:06;9.20;99.90
19755;DHT22;10036;47.812;9.274;2023-03-23T04:01:34;9.20;99.90
19755;DHT22;10036;47.812;9.274;2023-03-23T04:04:01;9.10;99.90
19755;DHT22;10036;47.812;9.274;2023-03-23T04:06:28;9.10;99.90
19755;DHT22;10036;47.812;9.274;2023-03-23T04:08:55;9.10;99.90
19755;DHT22;10036;47.812;9.274;2023-03-23T04:11:23;9.10;99.90
19755;DHT22;10036;47.812;9.274;2023-03-23T04:13:50;9.10;99.90
19755;DHT22;10036;47.812;9.274;2023-03-23T04:16:17;9.20;99.90
19755;DHT22;10036;47.812;9.274;2023-03-23T04:18:44;9.20;99.90
19755;DHT22;10036;47.812;9.274;2023-03-23T04:21:13;9.20;99.90
19755;DHT22;10036;47.812;9.274;2023-03-23T04:23:41;9.10;99.90
19755;DHT22;10036;47.812;9.274;2023-03-23T04:26:08;9.10;99.90
19755;DHT22;10036;47.812;9.274;2023-03-23T04:28:39;9.00;99.90
19755;DHT22;10036;47.812;9.274;2023-03-23T04:31:06;9.00;99.90
19755;DHT22;10036;47.812;9.274;2023-03-23T04:33:34;9.00;99.90
19755;DHT22;10036;47.812;9.274;2023-03-23T04:36:03;9.00;99.90
19755;DHT22;10036;47.812;9.274;2023-03-23T04:38:32;9.00;99.90
19755;DHT22;10036;47.812;9.274;2023-03-23T04:41:00;9.00;99.90
19755;DHT22;10036;47.812;9.274;2023-03-23T04:43:27;9.00;99.90
19755;DHT22;10036;47.812;9.274;2023-03-23T04:45:57;9.00;99.90
19755;DHT22;10036;47.812;9.274;2023-03-23T04:48:27;9.00;99.90
19755;DHT22;10036;47.812;9.274;2023-03-23T04:50:55;9.10;99.90
19755;DHT22;10036;47.812;9.274;2023-03-23T04:53:25;9.10;99.90
19755;DHT22;10036;47.812;9.274;2023-03-23T04:55:52;9.20;99.90
19755;DHT22;10036;47.812;9.274;2023-03-23T04:58:18;9.20;99.90
19755;DHT22;10036;47.812;9.274;2023-03-23T05:00:46;9.30;99.90
19755;DHT22;10036;47.812;9.274;2023-03-23T05:03:16;9.20;99.90
19755;DHT22;10036;47.812;9.274;2023-03-23T05:05:44;9.20;99.90
19755;DHT22;10036;47.812;9.274;2023-03-23T05:08:12;9.10;99.90
19755;DHT22;10036;47.812;9.274;2023-03-23T05:10:39;9.10;99.90
19755;DHT22;10036;47.812;9.274;2023-03-23T05:13:06;9.00;99.90
19755;DHT22;10036;47.812;9.274;2023-03-23T05:15:33;8.90;99.90
19755;DHT22;10036;47.812;9.274;2023-03-23T05:18:00;8.80;99.90
19755;DHT22;10036;47.812;9.274;2023-03-23T05:20:28;8.80;99.90
19755;DHT22;10036;47.812;9.274;2023-03-23T05:22:55;8.80;99.90
19755;DHT22;10036;47.812;9.274;2023-03-23T05:25:23;8.90;99.90
19755;DHT22;10036;47.812;9.274;2023-03-23T05:27:49;8.80;99.90
19755;DHT22;10036;47.812;9.274;2023-03-23T05:30:18;8.80;99.90
19755;DHT22;10036;47.812;9.274;2023-03-23T05:32:46;8.70;99.90
19755;DHT22;10036;47.812;9.274;2023-03-23T05:35:16;8.60;99.90
19755;DHT22;10036;47.812;9.274;2023-03-23T05:37:45;8.60;99.90
19755;DHT22;10036;47.812;9.274;2023-03-23T05:40:13;8.60;99.90
19755;DHT22;10036;47.812;9.274;2023-03-23T05:42:41;8.70;99.90
19755;DHT22;10036;47.812;9.274;2023-03-23T05:45:11;8.70;99.90
19755;DHT22;10036;47.812;9.274;2023-03-23T05:47:38;8.70;99.90
19755;DHT22;10036;47.812;9.274;2023-03-23T05:50:07;8.70;99.90
19755;DHT22;10036;47.812;9.274;2023-03-23T05:52:37;8.80;99.90
19755;DHT22;10036;47.812;9.274;2023-03-23T05:55:07;8.80;99.90
19755;DHT22;10036;47.812;9.274;2023-03-23T05:57:34;8.80;99.90
19755;DHT22;10036;47.812;9.274;2023-03-23T06:00:02;8.90;99.90
19755;DHT22;10036;47.812;9.274;2023-03-23T06:02:37;8.90;99.90
19755;DHT22;10036;47.812;9.274;2023-03-23T06:05:04;9.00;99.90
19755;DHT22;10036;47.812;9.274;2023-03-23T06:07:32;9.00;99.90
19755;DHT22;10036;47.812;9.274;2023-03-23T06:09:59;9.10;99.90
19755;DHT22;10036;47.812;9.274;2023-03-23T06:12:28;9.20;99.90
19755;DHT22;10036;47.812;9.274;2023-03-23T06:14:54;9.20;99.90
19755;DHT22;10036;47.812;9.274;2023-03-23T06:17:21;9.20;99.90
19755;DHT22;10036;47.812;9.274;2023-03-23T06:19:48;9.30;99.90
19755;DHT22;10036;47.812;9.274;2023-03-23T06:22:16;9.30;99.90
19755;DHT22;10036;47.812;9.274;2023-03-23T06:24:43;9.30;99.90
19755;DHT22;10036;47.812;9.274;2023-03-23T06:27:10;9.40;99.90
19755;DHT22;10036;47.812;9.274;2023-03-23T06:29:40;9.40;99.90
19755;DHT22;10036;47.812;9.274;2023-03-23T06:32:09;9.30;99.90
19755;DHT22;10036;47.812;9.274;2023-03-23T06:34:37;9.40;99.90
19755;DHT22;10036;47.812;9.274;2023-03-23T06:37:04;9.40;99.90
19755;DHT22;10036;47.812;9.274;2023-03-23T06:39:31;9.40;99.90
19755;DHT22;10036;47.812;9.274;2023-03-23T06:41:58;9.40;99.90
19755;DHT22;10036;47.812;9.274;2023-03-23T06:44:25;9.50;99.90
19755;DHT22;10036;47.812;9.274;2023-03-23T06:46:54;9.60;99.90
19755;DHT22;10036;47.812;9.274;2023-03-23T06:49:20;9.70;99.90
19755;DHT22;10036;47.812;9.274;2023-03-23T06:51:47;9.80;99.90
19755;DHT22;10036;47.812;9.274;2023-03-23T06:54:14;9.80;99.90
19755;DHT22;10036;47.812;9.274;2023-03-23T06:56:41;10.00;99.90
19755;DHT22;10036;47.812;9.274;2023-03-23T06:59:08;10.10;99.90
19755;DHT22;10036;47.812;9.274;2023-03-23T07:01:35;10.40;99.90
19755;DHT22;10036;47.812;9.274;2023-03-23T07:04:05;10.50;99.90
19755;DHT22;10036;47.812;9.274;2023-03-23T07:06:32;10.50;99.90
19755;DHT22;10036;47.812;9.274;2023-03-23T07:08:58;10.50;99.90
19755;DHT22;10036;47.812;9.274;2023-03-23T07:11:25;10.60;99.90
19755;DHT22;10036;47.812;9.274;2023-03-23T07:13:52;10.70;99.90
19755;DHT22;10036;47.812;9.274;2023-03-23T07:16:19;10.80;99.90
19755;DHT22;10036;47.812;9.274;2023-03-23T07:18:46;10.90;99.90
19755;DHT22;10036;47.812;9.274;2023-03-23T07:21:14;11.10;99.90
19755;DHT22;10036;47.812;9.274;2023-03-23T07:23:41;11.20;99.90
19755;DHT22;10036;47.812;9.274;2023-03-23T07:26:08;11.40;99.90
19755;DHT22;10036;47.812;9.274;2023-03-23T07:28:35;11.60;99.90
19755;DHT22;10036;47.812;9.274;2023-03-23T07:31:02;11.70;99.90
19755;DHT22;10036;47.812;9.274;2023-03-23T07:33:29;11.90;99.90
19755;DHT22;10036;47.812;9.274;2023-03-23T07:35:58;12.00;99.90
19755;DHT22;10036;47.812;9.274;2023-03-23T07:38:27;12.20;99.90
19755;DHT22;10036;47.812;9.274;2023-03-23T07:40:54;12.30;99.90
19755;DHT22;10036;47.812;9.274;2023-03-23T07:43:22;12.40;99.90
19755;DHT22;10036;47.812;9.274;2023-03-23T07:45:48;12.50;99.90
19755;DHT22;10036;47.812;9.274;2023-03-23T07:48:16;12.60;99.90
19755;DHT22;10036;47.812;9.274;2023-03-23T07:50:42;12.80;99.90
19755;DHT22;10036;47.812;9.274;2023-03-23T07:53:09;13.00;99.90
19755;DHT22;10036;47.812;9.274;2023-03-23T07:55:38;13.10;99.90
19755;DHT22;10036;47.812;9.274;2023-03-23T07:58:05;13.40;99.90
19755;DHT22;10036;47.812;9.274;2023-03-23T08:00:32;13.40;99.90
19755;DHT22;10036;47.812;9.274;2023-03-23T08:03:00;13.60;99.90
19755;DHT22;10036;47.812;9.274;2023-03-23T08:05:28;13.60;99.90
19755;DHT22;10036;47.812;9.274;2023-03-23T08:07:55;13.70;99.90
19755;DHT22;10036;47.812;9.274;2023-03-23T08:10:23;13.80;99.90
19755;DHT22;10036;47.812;9.274;2023-03-23T08:12:53;14.00;99.90
19755;DHT22;10036;47.812;9.274;2023-03-23T08:15:21;14.10;99.90
19755;DHT22;10036;47.812;9.274;2023-03-23T08:17:49;14.20;99.90
19755;DHT22;10036;47.812;9.274;2023-03-23T08:20:17;14.30;99.90
19755;DHT22;10036;47.812;9.274;2023-03-23T08:22:50;14.30;99.90
19755;DHT22;10036;47.812;9.274;2023-03-23T08:25:19;14.50;99.90
19755;DHT22;10036;47.812;9.274;2023-03-23T08:27:46;14.50;99.90
19755;DHT22;10036;47.812;9.274;2023-03-23T08:30:16;14.40;99.90
19755;DHT22;10036;47.812;9.274;2023-03-23T08:32:43;14.40;99.90
19755;DHT22;10036;47.812;9.274;2023-03-23T08:35:11;14.50;99.90
19755;DHT22;10036;47.812;9.274;2023-03-23T08:37:39;14.60;99.90
19755;DHT22;10036;47.812;9.274;2023-03-23T08:40:08;14.70;99.90
19755;DHT22;10036;47.812;9.274;2023-03-23T08:42:35;14.90;99.90
19755;DHT22;10036;47.812;9.274;2023-03-23T08:45:04;14.90;99.90
19755;DHT22;10036;47.812;9.274;2023-03-23T08:47:34;14.90;99.90
19755;DHT22;10036;47.812;9.274;2023-03-23T08:50:01;15.00;99.90
19755;DHT22;10036;47.812;9.274;2023-03-23T08:52:29;14.90;99.90
19755;DHT22;10036;47.812;9.274;2023-03-23T08:54:56;15.00;99.90
19755;DHT22;10036;47.812;9.274;2023-03-23T08:57:23;15.10;99.90
19755;DHT22;10036;47.812;9.274;2023-03-23T08:59:50;15.20;99.90
19755;DHT22;10036;47.812;9.274;2023-03-23T09:02:20;15.30;99.90
19755;DHT22;10036;47.812;9.274;2023-03-23T09:04:50;15.40;99.90
19755;DHT22;10036;47.812;9.274;2023-03-23T09:07:18;15.30;99.90
19755;DHT22;10036;47.812;9.274;2023-03-23T09:09:46;15.30;99.90
19755;DHT22;10036;47.812;9.274;2023-03-23T09:12:12;15.40;99.90
19755;DHT22;10036;47.812;9.274;2023-03-23T09:14:39;15.50;99.90
19755;DHT22;10036;47.812;9.274;2023-03-23T09:17:06;15.50;99.90
19755;DHT22;10036;47.812;9.274;2023-03-23T09:19:34;15.60;99.90
19755;DHT22;10036;47.812;9.274;2023-03-23T09:22:03;15.60;99.90
19755;DHT22;10036;47.812;9.274;2023-03-23T09:24:30;15.60;99.90
19755;DHT22;10036;47.812;9.274;2023-03-23T09:26:57;15.80;99.90
19755;DHT22;10036;47.812;9.274;2023-03-23T09:29:25;15.90;99.90
19755;DHT22;10036;47.812;9.274;2023-03-23T09:31:52;16.10;99.90
19755;DHT22;10036;47.812;9.274;2023-03-23T09:34:19;16.20;99.90
19755;DHT22;10036;47.812;9.274;2023-03-23T09:36:46;16.40;99.90
19755;DHT22;10036;47.812;9.274;2023-03-23T09:39:15;16.50;99.90
19755;DHT22;10036;47.812;9.274;2023-03-23T09:41:58;16.50;99.90
19755;DHT22;10036;47.812;9.274;2023-03-23T09:44:38;16.40;99.90
19755;DHT22;10036;47.812;9.274;2023-03-23T09:47:13;16.40;99.90
19755;DHT22;10036;47.812;9.274;2023-03-23T09:49:45;16.30;99.90
19755;DHT22;10036;47.812;9.274;2023-03-23T09:52:16;16.30;99.90
19755;DHT22;10036;47.812;9.274;2023-03-23T09:54:47;16.30;99.90
19755;DHT22;10036;47.812;9.274;2023-03-23T09:57:16;16.40;99.90
19755;DHT22;10036;47.812;9.274;2023-03-23T09:59:51;16.30;99.90
19755;DHT22;10036;47.812;9.274;2023-03-23T10:02:23;16.20;99.90
19755;DHT22;10036;47.812;9.274;2023-03-23T10:04:55;16.10;99.90
19755;DHT22;10036;47.812;9.274;2023-03-23T10:07:23;16.10;99.90
19755;DHT22;10036;47.812;9.274;2023-03-23T10:09:55;16.00;99.90
19755;DHT22;10036;47.812;9.274;2023-03-23T10:12:29;16.00;99.90
19755;DHT22;10036;47.812;9.274;2023-03-23T10:15:04;16.10;99.90
19755;DHT22;10036;47.812;9.274;2023-03-23T10:17:38;16.10;99.90
19755;DHT22;10036;47.812;9.274;2023-03-23T10:20:25;16.10;99.90
19755;DHT22;10036;47.812;9.274;2023-03-23T10:23:00;16.30;99.90
19755;DHT22;10036;47.812;9.274;2023-03-23T10:25:34;16.50;99.90
19755;DHT22;10036;47.812;9.274;2023-03-23T10:28:05;16.50;99.90
19755;DHT22;10036;47.812;9.274;2023-03-23T10:30:35;16.50;99.90
19755;DHT22;10036;47.812;9.274;2023-03-23T10:33:08;16.40;99.90
19755;DHT22;10036;47.812;9.274;2023-03-23T10:35:39;16.30;99.90
19755;DHT22;10036;47.812;9.274;2023-03-23T10:38:14;16.40;99.90
19755;DHT22;10036;47.812;9.274;2023-03-23T10:40:49;16.50;99.90
19755;DHT22;10036;47.812;9.274;2023-03-23T10:43:18;16.80;99.90
19755;DHT22;10036;47.812;9.274;2023-03-23T10:45:49;16.90;99.90
19755;DHT22;10036;47.812;9.274;2023-03-23T10:48:21;16.90;99.90
19755;DHT22;10036;47.812;9.274;2023-03-23T10:50:52;16.90;99.90
19755;DHT22;10036;47.812;9.274;2023-03-23T10:53:23;16.70;99.90
19755;DHT22;10036;47.812;9.274;2023-03-23T10:55:51;16.60;99.90
19755;DHT22;10036;47.812;9.274;2023-03-23T10:58:25;16.80;99.90
19755;DHT22;10036;47.812;9.274;2023-03-23T11:00:54;16.90;99.90
19755;DHT22;10036;47.812;9.274;2023-03-23T11:03:25;16.80;99.90
19755;DHT22;10036;47.812;9.274;2023-03-23T11:05:57;16.60;99.90
19755;DHT22;10036;47.812;9.274;2023-03-23T11:08:27;16.70;99.90
19755;DHT22;10036;47.812;9.274;2023-03-23T11:10:58;16.60;99.90
19755;DHT22;10036;47.812;9.274;2023-03-23T11:13:30;16.40;99.90
19755;DHT22;10036;47.812;9.274;2023-03-23T11:15:57;16.40;99.90
19755;DHT22;10036;47.812;9.274;2023-03-23T11:18:26;16.50;99.90
19755;DHT22;10036;47.812;9.274;2023-03-23T11:20:54;16.60;99.90
19755;DHT22;10036;47.812;9.274;2023-03-23T11:23:23;16.80;99.90
19755;DHT22;10036;47.812;9.274;2023-03-23T11:26:08;16.90;99.90
19755;DHT22;10036;47.812;9.274;2023-03-23T11:28:37;16.90;99.90
19755;DHT22;10036;47.812;9.274;2023-03-23T11:31:06;16.80;99.90
19755;DHT22;10036;47.812;9.274;2023-03-23T11:33:37;16.90;99.90
19755;DHT22;10036;47.812;9.274;2023-03-23T11:36:06;16.90;99.90
19755;DHT22;10036;47.812;9.274;2023-03-23T11:38:34;16.80;99.90
19755;DHT22;10036;47.812;9.274;2023-03-23T11:41:09;16.90;99.90
19755;DHT22;10036;47.812;9.274;2023-03-23T11:43:41;16.90;99.90
19755;DHT22;10036;47.812;9.274;2023-03-23T11:46:15;17.00;99.90
19755;DHT22;10036;47.812;9.274;2023-03-23T11:48:50;17.00;99.90
19755;DHT22;10036;47.812;9.274;2023-03-23T11:51:22;17.00;99.90
19755;DHT22;10036;47.812;9.274;2023-03-23T11:53:57;17.00;99.90
19755;DHT22;10036;47.812;9.274;2023-03-23T11:56:29;17.00;99.90
19755;DHT22;10036;47.812;9.274;2023-03-23T11:58:57;17.10;99.90
19755;DHT22;10036;47.812;9.274;2023-03-23T12:01:34;17.20;99.90
19755;DHT22;10036;47.812;9.274;2023-03-23T12:04:26;17.20;99.90
19755;DHT22;10036;47.812;9.274;2023-03-23T12:07:01;17.20;99.90
19755;DHT22;10036;47.812;9.274;2023-03-23T12:09:43;17.30;99.90
19755;DHT22;10036;47.812;9.274;2023-03-23T12:12:18;17.20;99.90
19755;DHT22;10036;47.812;9.274;2023-03-23T12:14:53;17.30;99.90
19755;DHT22;10036;47.812;9.274;2023-03-23T12:17:31;17.40;99.90
19755;DHT22;10036;47.812;9.274;2023-03-23T12:20:10;17.50;99.90
19755;DHT22;10036;47.812;9.274;2023-03-23T12:22:51;17.60;99.90
19755;DHT22;10036;47.812;9.274;2023-03-23T12:25:40;17.70;99.90
19755;DHT22;10036;47.812;9.274;2023-03-23T12:28:18;17.70;99.90
19755;DHT22;10036;47.812;9.274;2023-03-23T12:30:54;17.90;99.90
19755;DHT22;10036;47.812;9.274;2023-03-23T12:33:37;18.00;99.90
19755;DHT22;10036;47.812;9.274;2023-03-23T12:36:19;17.90;99.90
19755;DHT22;10036;47.812;9.274;2023-03-23T12:39:06;17.90;99.90
19755;DHT22;10036;47.812;9.274;2023-03-23T12:41:43;17.70;99.90
19755;DHT22;10036;47.812;9.274;2023-03-23T12:44:14;17.70;99.90
19755;DHT22;10036;47.812;9.274;2023-03-23T12:47:01;17.60;99.90
19755;DHT22;10036;47.812;9.274;2023-03-23T12:49:34;17.30;99.90
19755;DHT22;10036;47.812;9.274;2023-03-23T12:52:08;17.30;99.90
19755;DHT22;10036;47.812;9.274;2023-03-23T12:54:40;17.30;99.90
19755;DHT22;10036;47.812;9.274;2023-03-23T12:57:14;17.20;99.90
19755;DHT22;10036;47.812;9.274;2023-03-23T12:59:54;17.20;99.90
19755;DHT22;10036;47.812;9.274;2023-03-23T13:02:24;17.10;99.90
19755;DHT22;10036;47.812;9.274;2023-03-23T13:05:06;17.20;99.90
19755;DHT22;10036;47.812;9.274;2023-03-23T13:07:39;17.30;99.90
19755;DHT22;10036;47.812;9.274;2023-03-23T13:10:15;17.40;99.90
19755;DHT22;10036;47.812;9.274;2023-03-23T13:12:47;17.60;99.90
19755;DHT22;10036;47.812;9.274;2023-03-23T13:15:24;17.70;99.90
19755;DHT22;10036;47.812;9.274;2023-03-23T13:17:58;17.90;99.90
19755;DHT22;10036;47.812;9.274;2023-03-23T13:20:54;17.90;99.90
19755;DHT22;10036;47.812;9.274;2023-03-23T13:23:24;18.00;99.90
19755;DHT22;10036;47.812;9.274;2023-03-23T13:25:55;18.10;99.90
19755;DHT22;10036;47.812;9.274;2023-03-23T13:28:25;18.10;99.90
19755;DHT22;10036;47.812;9.274;2023-03-23T13:31:00;18.00;99.90
19755;DHT22;10036;47.812;9.274;2023-03-23T13:33:32;18.00;99.90
19755;DHT22;10036;47.812;9.274;2023-03-23T13:36:10;17.90;99.90
19755;DHT22;10036;47.812;9.274;2023-03-23T13:38:38;17.80;99.90
19755;DHT22;10036;47.812;9.274;2023-03-23T13:41:12;17.80;99.90
19755;DHT22;10036;47.812;9.274;2023-03-23T13:43:41;17.70;99.90
19755;DHT22;10036;47.812;9.274;2023-03-23T13:46:23;17.70;99.90
19755;DHT22;10036;47.812;9.274;2023-03-23T13:49:02;17.70;99.90
19755;DHT22;10036;47.812;9.274;2023-03-23T13:51:36;17.60;99.90
19755;DHT22;10036;47.812;9.274;2023-03-23T13:54:13;17.60;99.90
19755;DHT22;10036;47.812;9.274;2023-03-23T13:56:41;17.40;99.90
19755;DHT22;10036;47.812;9.274;2023-03-23T13:59:14;17.20;99.90
19755;DHT22;10036;47.812;9.274;2023-03-23T14:01:43;17.10;99.90
19755;DHT22;10036;47.812;9.274;2023-03-23T14:04:13;17.00;99.90
19755;DHT22;10036;47.812;9.274;2023-03-23T14:06:41;17.00;99.90
19755;DHT22;10036;47.812;9.274;2023-03-23T14:09:13;16.80;99.90
19755;DHT22;10036;47.812;9.274;2023-03-23T14:11:48;16.70;99.90
19755;DHT22;10036;47.812;9.274;2023-03-23T14:14:23;16.60;99.90
19755;DHT22;10036;47.812;9.274;2023-03-23T14:16:52;16.50;99.90
19755;DHT22;10036;47.812;9.274;2023-03-23T14:19:22;16.40;99.90
19755;DHT22;10036;47.812;9.274;2023-03-23T14:21:52;16.40;99.90
19755;DHT22;10036;47.812;9.274;2023-03-23T14:24:21;16.30;99.90
19755;DHT22;10036;47.812;9.274;2023-03-23T14:26:51;16.30;99.90
19755;DHT22;10036;47.812;9.274;2023-03-23T14:29:20;16.30;99.90
19755;DHT22;10036;47.812;9.274;2023-03-23T14:31:54;16.20;99.90
19755;DHT22;10036;47.812;9.274;2023-03-23T14:34:25;16.20;99.90
19755;DHT22;10036;47.812;9.274;2023-03-23T14:36:53;16.30;99.90
19755;DHT22;10036;47.812;9.274;2023-03-23T14:39:23;16.30;99.90
19755;DHT22;10036;47.812;9.274;2023-03-23T14:41:51;16.30;99.90
19755;DHT22;10036;47.812;9.274;2023-03-23T14:44:22;16.30;99.90
19755;DHT22;10036;47.812;9.274;2023-03-23T14:46:50;16.30;99.90
19755;DHT22;10036;47.812;9.274;2023-03-23T14:49:23;16.20;99.90
19755;DHT22;10036;47.812;9.274;2023-03-23T14:51:53;16.20;99.90
19755;DHT22;10036;47.812;9.274;2023-03-23T14:54:25;16.10;99.90
19755;DHT22;10036;47.812;9.274;2023-03-23T14:56:53;16.10;99.90
19755;DHT22;10036;47.812;9.274;2023-03-23T14:59:20;16.10;99.90
19755;DHT22;10036;47.812;9.274;2023-03-23T15:01:50;16.00;99.90
19755;DHT22;10036;47.812;9.274;2023-03-23T15:04:20;16.00;99.90
19755;DHT22;10036;47.812;9.274;2023-03-23T15:06:50;16.00;99.90
19755;DHT22;10036;47.812;9.274;2023-03-23T15:09:20;16.00;99.90
19755;DHT22;10036;47.812;9.274;2023-03-23T15:11:54;16.00;99.90
19755;DHT22;10036;47.812;9.274;2023-03-23T15:14:23;15.90;99.90
19755;DHT22;10036;47.812;9.274;2023-03-23T15:16:52;15.90;99.90
19755;DHT22;10036;47.812;9.274;2023-03-23T15:19:23;15.90;99.90
19755;DHT22;10036;47.812;9.274;2023-03-23T15:21:52;15.90;99.90
19755;DHT22;10036;47.812;9.274;2023-03-23T15:24:30;15.90;99.90
19755;DHT22;10036;47.812;9.274;2023-03-23T15:27:11;15.80;99.90
19755;DHT22;10036;47.812;9.274;2023-03-23T15:29:47;15.80;99.90
19755;DHT22;10036;47.812;9.274;2023-03-23T15:32:21;15.80;99.90
19755;DHT22;10036;47.812;9.274;2023-03-23T15:34:49;15.70;99.90
19755;DHT22;10036;47.812;9.274;2023-03-23T15:37:20;15.80;99.90
19755;DHT22;10036;47.812;9.274;2023-03-23T15:39:47;15.80;99.90
19755;DHT22;10036;47.812;9.274;2023-03-23T15:42:22;15.80;99.90
19755;DHT22;10036;47.812;9.274;2023-03-23T15:47:45;15.70;99.90
19755;DHT22;10036;47.812;9.274;2023-03-23T15:50:16;15.70;99.90
19755;DHT22;10036;47.812;9.274;2023-03-23T15:52:45;15.70;99.90
19755;DHT22;10036;47.812;9.274;2023-03-23T15:55:21;15.60;99.90
19755;DHT22;10036;47.812;9.274;2023-03-23T15:57:49;15.60;99.90
19755;DHT22;10036;47.812;9.274;2023-03-23T16:00:17;15.70;99.90
19755;DHT22;10036;47.812;9.274;2023-03-23T16:02:45;15.70;99.90
19755;DHT22;10036;47.812;9.274;2023-03-23T16:05:14;15.60;99.90
19755;DHT22;10036;47.812;9.274;2023-03-23T16:07:41;15.60;99.90
19755;DHT22;10036;47.812;9.274;2023-03-23T16:10:15;15.60;99.90